Time;durP1;ratioP1;P1;durP2;ratioP2;P2;SDS_P1;SDS_P2;PMS_P1;PMS_P2;Temp;Humidity;BMP_temperature;BMP_pressure;BME280_temperature;BME280_humidity;BME280_pressure;Samples;Min_cycle;Max_cycle;Signal;HPM_P1;HPM_P2
2021/08/19 00:01:22;;;;;;;18.30;13.93;;;16.60;99.90;;;;;;4953746;29;20035;-94
2021/08/19 00:03:47;;;;;;;21.85;13.70;;;16.60;99.90;;;;;;4953712;29;20066;-94
2021/08/19 00:06:13;;;;;;;21.65;14.45;;;16.60;99.90;;;;;;4937791;29;20110;-91
2021/08/19 00:08:40;;;;;;;23.17;13.60;;;16.60;99.90;;;;;;4937502;29;20047;-94
2021/08/19 00:11:08;;;;;;;18.15;12.80;;;16.70;99.90;;;;;;4937566;29;20115;-93
2021/08/19 00:13:33;;;;;;;18.00;12.93;;;16.60;99.90;;;;;;4937571;29;20042;-91
2021/08/19 00:15:59;;;;;;;21.80;14.35;;;16.60;99.90;;;;;;4954433;28;20031;-92
2021/08/19 00:18:24;;;;;;;19.40;13.43;;;16.60;99.90;;;;;;4976292;28;20105;-92
2021/08/19 00:20:51;;;;;;;15.40;10.75;;;16.60;99.90;;;;;;4975867;28;20398;-94
2021/08/19 00:23:16;;;;;;;18.23;13.25;;;16.60;99.90;;;;;;4975807;28;20035;-94
2021/08/19 00:25:42;;;;;;;24.50;15.73;;;16.60;99.90;;;;;;4975434;28;20034;-93
2021/08/19 00:28:07;;;;;;;21.70;14.47;;;16.60;99.90;;;;;;4975516;28;20026;-91
2021/08/19 00:30:33;;;;;;;21.95;14.43;;;16.50;99.90;;;;;;4975865;28;20081;-92
2021/08/19 00:32:59;;;;;;;24.58;15.10;;;16.50;99.90;;;;;;4991821;28;20111;-93
2021/08/19 00:35:25;;;;;;;19.70;12.98;;;16.50;99.90;;;;;;4991810;28;20038;-94
2021/08/19 00:37:51;;;;;;;22.23;14.05;;;16.40;99.90;;;;;;4975424;28;20442;-95
2021/08/19 00:40:16;;;;;;;24.02;13.73;;;16.40;99.90;;;;;;4991429;28;20030;-93
2021/08/19 00:42:42;;;;;;;15.88;11.93;;;16.50;99.90;;;;;;4991750;28;20038;-94
2021/08/19 00:45:08;;;;;;;18.60;12.18;;;16.50;99.90;;;;;;4975417;28;20031;-94
2021/08/19 00:51:43;;;;;;;14.52;10.20;;;16.50;99.90;;;;;;4995066;28;20085;-94
2021/08/19 00:54:23;;;;;;;18.52;12.73;;;16.50;99.90;;;;;;4975231;28;20145;-94
2021/08/19 00:56:53;;;;;;;;;;;16.50;99.90;;;;;;4991613;28;20060;-94
2021/08/19 00:59:23;;;;;;;16.85;10.73;;;16.50;99.90;;;;;;4975166;28;20006;-94
2021/08/19 01:01:50;;;;;;;16.08;10.38;;;16.50;99.90;;;;;;4974958;28;20038;-94
2021/08/19 01:04:16;;;;;;;14.95;11.07;;;16.50;99.90;;;;;;4974949;28;20026;-94
2021/08/19 01:06:41;;;;;;;14.25;8.90;;;16.50;99.90;;;;;;4991183;28;20030;-93
2021/08/19 01:09:08;;;;;;;14.35;9.50;;;16.40;99.90;;;;;;4975018;28;20030;-95
2021/08/19 01:11:35;;;;;;;16.52;10.43;;;16.40;99.90;;;;;;4974669;28;20041;-95
2021/08/19 01:14:02;;;;;;;17.55;12.30;;;16.50;99.90;;;;;;4974892;28;20038;-94
2021/08/19 01:16:28;;;;;;;16.80;10.75;;;16.40;99.90;;;;;;4990781;28;20031;-94
2021/08/19 01:18:54;;;;;;;16.50;9.93;;;16.50;99.90;;;;;;4975016;28;20038;-95
2021/08/19 01:21:19;;;;;;;21.85;14.35;;;16.50;99.90;;;;;;4975216;28;20105;-94
2021/08/19 01:23:46;;;;;;;19.15;13.55;;;16.40;99.90;;;;;;4990976;28;20065;-94
2021/08/19 01:26:18;;;;;;;19.63;14.18;;;16.50;99.90;;;;;;4974759;28;20026;-95
2021/08/19 01:28:45;;;;;;;19.65;13.88;;;16.50;99.90;;;;;;4974442;28;20038;-96
2021/08/19 01:31:17;;;;;;;20.73;15.32;;;16.50;99.90;;;;;;4990669;28;20061;-95
2021/08/19 01:33:45;;;;;;;19.48;12.68;;;16.50;99.90;;;;;;4974317;28;20034;-95
2021/08/19 01:36:12;;;;;;;16.15;11.18;;;16.50;99.90;;;;;;4974532;28;20068;-94
2021/08/19 01:38:38;;;;;;;18.85;13.45;;;16.50;99.90;;;;;;4990606;28;20038;-96
2021/08/19 01:41:04;;;;;;;21.02;13.43;;;16.50;99.90;;;;;;4974553;28;20040;-93
2021/08/19 01:43:30;;;;;;;27.77;16.65;;;16.60;99.90;;;;;;4974360;28;20034;-95
2021/08/19 01:46:17;;;;;;;22.50;15.30;;;16.60;99.90;;;;;;4974249;28;20470;-96
2021/08/19 01:48:44;;;;;;;19.35;12.55;;;16.60;99.90;;;;;;4931493;29;20079;-96
2021/08/19 01:51:11;;;;;;;18.20;11.70;;;16.60;99.90;;;;;;4947260;29;20107;-94
2021/08/19 01:53:38;;;;;;;23.88;13.85;;;16.60;99.90;;;;;;4931584;29;20632;-95
2021/08/19 01:56:04;;;;;;;19.75;13.13;;;16.60;99.90;;;;;;4947416;29;20043;-95
2021/08/19 01:58:30;;;;;;;23.85;14.55;;;16.60;99.90;;;;;;4931484;29;20031;-95
2021/08/19 02:00:55;;;;;;;23.17;13.32;;;16.60;99.90;;;;;;4931418;29;20075;-96
2021/08/19 02:03:21;;;;;;;21.48;12.98;;;16.60;99.90;;;;;;4931349;29;20028;-95
2021/08/19 02:05:48;;;;;;;17.48;11.38;;;16.60;99.90;;;;;;4931437;29;20114;-95
2021/08/19 02:08:15;;;;;;;20.00;13.48;;;16.60;99.90;;;;;;4931392;29;20120;-95
2021/08/19 02:10:41;;;;;;;19.50;12.00;;;16.60;99.90;;;;;;4931490;29;20423;-96
2021/08/19 02:13:08;;;;;;;17.88;11.95;;;16.60;99.90;;;;;;4930503;29;20051;-96
2021/08/19 02:15:33;;;;;;;18.13;11.82;;;16.60;99.90;;;;;;4947253;29;20043;-95
2021/08/19 02:17:59;;;;;;;20.33;12.60;;;16.70;99.90;;;;;;4930934;29;20059;-96
2021/08/19 02:20:26;;;;;;;17.83;11.35;;;16.70;99.90;;;;;;4931172;29;20068;-96
2021/08/19 02:22:57;;;;;;;22.88;13.60;;;16.70;99.90;;;;;;4931029;29;20046;-95
2021/08/19 02:25:23;;;;;;;17.77;11.80;;;16.70;99.90;;;;;;4967516;28;20045;-96
2021/08/19 02:27:49;;;;;;;17.60;12.82;;;16.70;99.90;;;;;;4973443;28;20094;-94
2021/08/19 02:30:14;;;;;;;25.73;16.23;;;16.70;99.90;;;;;;4973712;28;20059;-95
2021/08/19 02:32:40;;;;;;;18.98;11.77;;;16.80;99.90;;;;;;4989574;28;20061;-95
2021/08/19 02:35:06;;;;;;;16.95;12.18;;;16.80;99.90;;;;;;4973492;28;20032;-95
2021/08/19 02:37:32;;;;;;;15.80;11.35;;;16.80;99.90;;;;;;4973235;28;20030;-95
2021/08/19 02:39:57;;;;;;;16.15;10.88;;;16.80;99.90;;;;;;4973546;28;20033;-95
2021/08/19 02:42:23;;;;;;;14.45;10.57;;;16.80;99.90;;;;;;4973550;28;20039;-94
2021/08/19 02:44:48;;;;;;;15.05;10.95;;;16.80;99.90;;;;;;4973164;28;20034;-94
2021/08/19 02:47:14;;;;;;;14.35;9.85;;;16.80;99.90;;;;;;4973300;28;20042;-94
2021/08/19 02:49:40;;;;;;;14.38;10.63;;;16.80;99.90;;;;;;4973261;28;20051;-93
2021/08/19 02:52:06;;;;;;;14.07;10.32;;;16.80;99.90;;;;;;4973124;28;20046;-93
2021/08/19 02:54:32;;;;;;;14.45;9.43;;;16.80;99.90;;;;;;4973306;28;20031;-94
2021/08/19 02:56:57;;;;;;;17.30;12.95;;;16.80;99.90;;;;;;4989333;28;20042;-93
2021/08/19 02:59:23;;;;;;;27.65;18.05;;;16.90;99.90;;;;;;4989332;28;20049;-93
2021/08/19 03:01:49;;;;;;;19.55;14.73;;;16.90;99.90;;;;;;4973390;28;20030;-93
2021/08/19 03:04:14;;;;;;;22.25;13.77;;;16.90;99.90;;;;;;4973066;28;20037;-95
2021/08/19 03:06:40;;;;;;;27.58;17.40;;;16.90;99.90;;;;;;4973308;28;20112;-93
2021/08/19 03:09:05;;;;;;;20.95;13.55;;;16.90;99.90;;;;;;4972805;28;20379;-94
2021/08/19 03:11:31;;;;;;;25.52;15.75;;;16.90;99.90;;;;;;4973267;28;20034;-95
2021/08/19 03:13:58;;;;;;;29.60;18.75;;;16.90;99.90;;;;;;4972881;28;20039;-93
2021/08/19 03:16:23;;;;;;;24.45;17.52;;;16.90;99.90;;;;;;4989069;28;20027;-94
2021/08/19 03:18:49;;;;;;;22.40;14.45;;;16.90;99.90;;;;;;4973113;28;20038;-95
2021/08/19 03:21:17;;;;;;;18.55;13.95;;;16.90;99.90;;;;;;4989116;28;20069;-95
2021/08/19 03:23:42;;;;;;;25.13;16.15;;;16.90;99.90;;;;;;4972695;28;20048;-95
2021/08/19 03:26:08;;;;;;;27.70;16.98;;;16.90;99.90;;;;;;4976556;28;20114;-95
2021/08/19 03:28:34;;;;;;;26.23;16.52;;;16.90;99.90;;;;;;4992708;28;20053;-94
2021/08/19 03:31:00;;;;;;;31.13;19.27;;;16.90;99.90;;;;;;4993180;28;20278;-95
2021/08/19 03:33:26;;;;;;;29.63;17.65;;;16.90;99.90;;;;;;4992918;28;20034;-94
2021/08/19 03:35:52;;;;;;;29.15;16.55;;;16.90;99.90;;;;;;4992808;28;20038;-94
2021/08/19 03:38:18;;;;;;;21.25;15.00;;;16.90;99.90;;;;;;4976568;28;20120;-91
2021/08/19 03:40:43;;;;;;;27.85;17.13;;;16.90;99.90;;;;;;4976779;28;20031;-94
2021/08/19 03:43:10;;;;;;;26.80;17.83;;;17.00;99.90;;;;;;4976830;28;20023;-95
2021/08/19 03:45:36;;;;;;;25.23;16.48;;;16.90;99.90;;;;;;4976383;28;20038;-94
2021/08/19 03:48:02;;;;;;;32.35;20.25;;;16.90;99.90;;;;;;4976409;28;20027;-95
2021/08/19 03:50:28;;;;;;;27.58;17.67;;;16.90;99.90;;;;;;4976285;28;20046;-96
2021/08/19 03:52:54;;;;;;;34.28;18.35;;;16.90;99.90;;;;;;4976295;28;20046;-93
2021/08/19 03:55:20;;;;;;;25.15;14.35;;;16.90;99.90;;;;;;4976500;28;20487;-96
2021/08/19 03:57:46;;;;;;;28.35;16.58;;;16.80;99.90;;;;;;4976291;28;20033;-92
2021/08/19 04:00:14;;;;;;;28.27;16.67;;;16.70;99.90;;;;;;4976028;28;20034;-94
2021/08/19 04:02:40;;;;;;;21.63;14.25;;;16.80;99.90;;;;;;4992665;28;20126;-93
2021/08/19 04:05:06;;;;;;;22.40;14.45;;;16.70;99.90;;;;;;4992299;28;20042;-93
2021/08/19 04:07:32;;;;;;;17.10;12.43;;;16.70;99.90;;;;;;4992184;28;20061;-92
2021/08/19 04:09:57;;;;;;;15.68;11.35;;;16.70;99.90;;;;;;4975836;28;20042;-95
2021/08/19 04:12:23;;;;;;;16.30;10.02;;;16.70;99.90;;;;;;4976163;28;20030;-96
2021/08/19 04:14:49;;;;;;;17.20;11.95;;;16.70;99.90;;;;;;4975814;28;20038;-93
2021/08/19 04:17:14;;;;;;;12.52;8.80;;;16.60;99.90;;;;;;4991802;28;20026;-93
2021/08/19 04:19:40;;;;;;;18.95;11.38;;;16.60;99.90;;;;;;4976184;28;20034;-94
2021/08/19 04:22:06;;;;;;;15.18;9.18;;;16.60;99.90;;;;;;4992291;28;20038;-94
2021/08/19 04:24:31;;;;;;;14.95;8.85;;;16.50;99.90;;;;;;4976021;28;20045;-94
2021/08/19 04:26:57;;;;;;;14.85;10.13;;;16.50;99.90;;;;;;4991907;28;20026;-96
2021/08/19 04:29:23;;;;;;;11.93;8.65;;;16.40;99.90;;;;;;4975743;28;20065;-93
2021/08/19 04:31:49;;;;;;;10.98;7.38;;;16.40;99.90;;;;;;4991718;28;20478;-94
2021/08/19 04:34:14;;;;;;;11.05;6.32;;;16.40;99.90;;;;;;4975606;28;20038;-94
2021/08/19 04:36:40;;;;;;;8.00;5.68;;;16.30;99.90;;;;;;4975288;28;20098;-95
2021/08/19 04:39:05;;;;;;;10.27;6.68;;;16.40;99.90;;;;;;4991789;28;20037;-94
2021/08/19 04:41:31;;;;;;;13.30;8.00;;;16.30;99.90;;;;;;4975646;28;20615;-95
2021/08/19 04:43:57;;;;;;;11.43;7.65;;;16.20;99.90;;;;;;4975282;28;20026;-93
2021/08/19 04:46:22;;;;;;;10.63;7.13;;;16.20;99.90;;;;;;4991501;28;20068;-94
2021/08/19 04:48:49;;;;;;;9.98;6.65;;;16.10;99.90;;;;;;4975306;28;20034;-96
2021/08/19 04:51:17;;;;;;;9.10;4.57;;;16.10;99.90;;;;;;4975169;28;20061;-92
2021/08/19 04:53:42;;;;;;;8.88;6.13;;;16.20;99.90;;;;;;4975392;28;20023;-94
2021/08/19 04:56:08;;;;;;;10.60;6.35;;;16.20;99.90;;;;;;4975176;28;20506;-95
2021/08/19 04:58:33;;;;;;;10.13;6.55;;;16.20;99.90;;;;;;4975316;28;20610;-95
2021/08/19 05:00:59;;;;;;;9.57;5.88;;;16.10;99.90;;;;;;4975178;28;20030;-92
2021/08/19 05:03:24;;;;;;;11.45;6.05;;;16.10;99.90;;;;;;4974999;28;20121;-93
2021/08/19 05:05:50;;;;;;;9.43;5.32;;;16.10;99.90;;;;;;4975013;28;20034;-94
2021/08/19 05:08:15;;;;;;;10.70;8.00;;;16.10;99.90;;;;;;4955874;28;20162;-94
2021/08/19 05:10:41;;;;;;;7.78;5.55;;;16.10;99.90;;;;;;4956703;28;20038;-95
2021/08/19 05:13:07;;;;;;;10.88;6.13;;;16.10;99.90;;;;;;4973213;28;20126;-94
2021/08/19 05:15:32;;;;;;;14.93;8.73;;;16.10;99.90;;;;;;4956213;28;20027;-88
2021/08/19 05:17:58;;;;;;;9.27;6.63;;;16.10;99.90;;;;;;4970867;28;20073;-89
2021/08/19 05:20:24;;;;;;;13.73;8.35;;;16.20;99.90;;;;;;4990144;28;20089;-92
2021/08/19 05:22:50;;;;;;;15.20;10.10;;;16.20;99.90;;;;;;4989977;28;20466;-88
2021/08/19 05:25:15;;;;;;;11.57;8.63;;;16.20;99.90;;;;;;4990280;28;20129;-91
2021/08/19 05:27:41;;;;;;;10.23;7.78;;;16.30;99.90;;;;;;4990108;28;20098;-88
2021/08/19 05:30:09;;;;;;;19.67;10.82;;;16.30;99.90;;;;;;4973944;28;20034;-93
2021/08/19 05:32:34;;;;;;;14.70;9.27;;;16.30;99.90;;;;;;4973468;28;20034;-92
2021/08/19 05:35:02;;;;;;;15.98;10.95;;;16.30;99.90;;;;;;4973760;28;20050;-90
2021/08/19 05:37:28;;;;;;;28.27;15.80;;;16.40;99.90;;;;;;4989226;28;20049;-92
2021/08/19 05:39:54;;;;;;;20.13;14.27;;;16.40;99.90;;;;;;4989831;28;20471;-89
2021/08/19 05:42:20;;;;;;;26.13;17.38;;;16.40;99.90;;;;;;4989955;28;20494;-91
2021/08/19 05:44:45;;;;;;;26.17;18.40;;;16.40;99.90;;;;;;4973724;28;20030;-93
2021/08/19 05:47:11;;;;;;;26.65;16.95;;;16.50;99.90;;;;;;4972475;28;20034;-90
2021/08/19 05:49:45;;;;;;;31.50;18.25;;;16.50;99.90;;;;;;4973474;28;20092;-94
2021/08/19 05:52:12;;;;;;;27.52;18.08;;;16.50;99.90;;;;;;4972910;28;20292;-92
2021/08/19 05:54:38;;;;;;;39.30;23.17;;;16.60;99.90;;;;;;4973475;28;20030;-91
2021/08/19 05:57:04;;;;;;;36.88;22.40;;;16.60;99.90;;;;;;4989560;28;20022;-93
2021/08/19 05:59:30;;;;;;;38.50;23.88;;;16.60;99.90;;;;;;4973593;28;20030;-94
2021/08/19 06:01:55;;;;;;;33.50;21.70;;;16.60;99.90;;;;;;4974266;28;20039;-96
2021/08/19 06:04:21;;;;;;;36.22;21.80;;;16.60;99.90;;;;;;4973591;28;20058;-88
2021/08/19 06:06:46;;;;;;;34.90;23.63;;;16.60;99.90;;;;;;4973261;28;20030;-94
2021/08/19 06:09:13;;;;;;;37.83;23.65;;;16.70;99.90;;;;;;4973187;28;20038;-95
2021/08/19 06:11:42;;;;;;;34.13;21.92;;;16.70;99.90;;;;;;4973376;28;20025;-92
2021/08/19 06:14:08;;;;;;;37.17;21.60;;;16.70;99.90;;;;;;4973166;28;20131;-96
2021/08/19 06:16:33;;;;;;;34.85;21.45;;;16.70;99.90;;;;;;4972977;28;20023;-94
2021/08/19 06:19:00;;;;;;;34.47;22.27;;;16.70;99.90;;;;;;4973472;28;20478;-95
2021/08/19 06:21:26;;;;;;;36.85;21.92;;;16.70;99.90;;;;;;4989243;28;20036;-94
2021/08/19 06:23:52;;;;;;;34.55;21.23;;;16.70;99.90;;;;;;4989436;28;20030;-91
2021/08/19 06:26:18;;;;;;;34.75;22.48;;;16.70;99.90;;;;;;4989690;28;20092;-96
2021/08/19 06:28:43;;;;;;;31.83;21.05;;;16.80;99.90;;;;;;4960521;29;20051;-93
2021/08/19 06:31:09;;;;;;;31.33;18.52;;;16.80;99.90;;;;;;4947779;29;20035;-94
2021/08/19 06:33:34;;;;;;;40.22;23.27;;;16.80;99.90;;;;;;4934535;29;20027;-93
2021/08/19 06:36:00;;;;;;;30.05;19.00;;;16.80;99.90;;;;;;4934335;29;20058;-95
2021/08/19 06:38:26;;;;;;;32.60;20.77;;;16.80;99.90;;;;;;4934690;29;20036;-95
2021/08/19 06:40:51;;;;;;;31.10;20.10;;;16.80;99.90;;;;;;4934693;29;20090;-92
2021/08/19 06:43:17;;;;;;;34.05;20.10;;;16.80;99.90;;;;;;4950423;29;20032;-90
2021/08/19 06:45:42;;;;;;;35.22;21.90;;;16.90;99.90;;;;;;4950519;29;20037;-95
2021/08/19 06:48:08;;;;;;;29.00;18.55;;;16.90;99.90;;;;;;4950541;29;20110;-92
2021/08/19 06:50:34;;;;;;;33.10;20.52;;;16.90;99.90;;;;;;4934488;29;20600;-96
2021/08/19 06:52:59;;;;;;;42.35;23.35;;;16.80;99.90;;;;;;4950216;29;20058;-93
2021/08/19 06:55:27;;;;;;;37.67;22.15;;;16.90;99.90;;;;;;4953557;28;20027;-92
2021/08/19 06:57:53;;;;;;;38.22;22.20;;;16.90;99.90;;;;;;4969865;28;20045;-95
2021/08/19 07:00:24;;;;;;;32.22;20.67;;;16.90;99.90;;;;;;4968912;28;20063;-93
2021/08/19 07:02:49;;;;;;;34.13;21.85;;;16.90;99.90;;;;;;4964295;28;20035;-93
2021/08/19 07:05:15;;;;;;;30.00;19.30;;;16.90;99.90;;;;;;4970081;28;20102;-92
2021/08/19 07:07:41;;;;;;;31.55;19.63;;;17.00;99.90;;;;;;4986393;28;20086;-96
2021/08/19 07:10:08;;;;;;;27.27;16.25;;;17.00;99.90;;;;;;4969961;28;20043;-95
2021/08/19 07:12:35;;;;;;;33.75;20.95;;;17.00;99.90;;;;;;4968939;28;20030;-95
2021/08/19 07:15:00;;;;;;;27.48;18.17;;;16.90;99.90;;;;;;4969035;28;20041;-92
2021/08/19 07:17:26;;;;;;;33.08;20.15;;;17.00;99.90;;;;;;4980932;28;20050;-87
2021/08/19 07:19:51;;;;;;;30.13;20.13;;;17.00;99.90;;;;;;4988642;28;20023;-95
2021/08/19 07:22:17;;;;;;;34.22;21.55;;;16.90;99.90;;;;;;4988604;28;20041;-91
2021/08/19 07:24:43;;;;;;;28.75;19.70;;;17.00;99.90;;;;;;4972994;28;20121;-91
2021/08/19 07:27:09;;;;;;;34.60;18.55;;;16.90;99.90;;;;;;4972536;28;20042;-94
2021/08/19 07:29:35;;;;;;;25.10;16.48;;;16.90;99.90;;;;;;4970894;28;20049;-96
2021/08/19 07:32:01;;;;;;;26.35;18.10;;;17.00;99.90;;;;;;4953604;28;20030;-95
2021/08/19 07:34:26;;;;;;;28.33;19.77;;;17.00;99.90;;;;;;4968631;28;20054;-92
2021/08/19 07:36:52;;;;;;;30.52;18.05;;;16.90;99.90;;;;;;4954680;28;20022;-94
2021/08/19 07:39:18;;;;;;;28.60;16.48;;;17.00;99.90;;;;;;4953759;28;20081;-96
2021/08/19 07:41:43;;;;;;;28.92;17.73;;;17.00;99.90;;;;;;4970548;28;20030;-96
2021/08/19 07:44:09;;;;;;;29.15;20.20;;;17.00;99.90;;;;;;4953082;28;20034;-96
2021/08/19 07:46:35;;;;;;;23.45;16.33;;;17.00;99.90;;;;;;4952903;28;20031;-95
2021/08/19 07:49:02;;;;;;;24.13;15.88;;;17.00;99.90;;;;;;4952757;28;20041;-95
2021/08/19 07:51:30;;;;;;;21.48;14.70;;;17.00;99.90;;;;;;4952755;28;20106;-94
2021/08/19 07:53:57;;;;;;;26.25;16.10;;;17.10;99.90;;;;;;4952724;28;20035;-94
2021/08/19 07:56:22;;;;;;;31.02;18.02;;;17.00;99.90;;;;;;4952775;28;20122;-94
2021/08/19 07:58:48;;;;;;;26.92;17.15;;;17.00;99.90;;;;;;4952087;28;20062;-94
2021/08/19 08:01:14;;;;;;;26.67;17.05;;;17.10;99.90;;;;;;4952750;28;20059;-95
2021/08/19 08:03:39;;;;;;;25.77;17.05;;;17.10;99.90;;;;;;4952642;28;20125;-94
2021/08/19 08:06:05;;;;;;;25.88;17.67;;;17.10;99.90;;;;;;4952922;28;20055;-94
2021/08/19 08:08:31;;;;;;;21.63;14.90;;;17.10;99.90;;;;;;4968620;28;20107;-95
2021/08/19 08:10:56;;;;;;;23.58;15.20;;;17.20;99.90;;;;;;4954169;28;20050;-94
2021/08/19 08:13:22;;;;;;;18.95;12.52;;;17.20;99.90;;;;;;4956250;28;20034;-95
2021/08/19 08:15:48;;;;;;;24.77;17.00;;;17.30;99.90;;;;;;4956359;28;20121;-95
2021/08/19 08:18:17;;;;;;;28.85;17.25;;;17.30;99.90;;;;;;4990665;28;20042;-95
2021/08/19 08:20:44;;;;;;;21.23;14.43;;;17.40;99.90;;;;;;4975200;28;20106;-91
2021/08/19 08:23:11;;;;;;;24.63;16.38;;;17.40;99.90;;;;;;4975190;28;20069;-94
2021/08/19 08:25:37;;;;;;;26.10;16.83;;;17.50;99.90;;;;;;4991393;28;20542;-94
2021/08/19 08:28:05;;;;;;;23.02;15.88;;;17.50;99.90;;;;;;4975126;28;20037;-94
2021/08/19 08:30:32;;;;;;;26.20;18.05;;;17.50;99.90;;;;;;4975022;28;20050;-95
2021/08/19 08:32:58;;;;;;;27.67;16.70;;;17.50;99.90;;;;;;4991159;28;20031;-94
2021/08/19 08:35:24;;;;;;;25.27;15.98;;;17.60;99.90;;;;;;4990863;28;20129;-94
2021/08/19 08:37:50;;;;;;;28.15;16.05;;;17.60;99.90;;;;;;4974860;28;20030;-95
2021/08/19 08:40:17;;;;;;;24.30;17.27;;;17.60;99.90;;;;;;4974831;28;20037;-93
2021/08/19 08:42:44;;;;;;;20.98;13.88;;;17.70;99.90;;;;;;4975094;28;20035;-93
2021/08/19 08:45:11;;;;;;;22.30;15.23;;;17.70;99.90;;;;;;4990839;28;20044;-93
2021/08/19 08:47:38;;;;;;;24.40;16.38;;;17.60;99.90;;;;;;4970399;23;20051;-96
2021/08/19 08:50:09;;;;;;;21.83;15.45;;;17.50;99.90;;;;;;4971852;28;20410;-93
2021/08/19 08:52:36;;;;;;;22.35;14.80;;;17.50;99.90;;;;;;4971716;28;20035;-93
2021/08/19 08:55:04;;;;;;;23.50;14.93;;;17.40;99.90;;;;;;4971918;28;20034;-92
2021/08/19 08:57:33;;;;;;;22.95;16.55;;;17.30;99.90;;;;;;4971806;28;20118;-94
2021/08/19 08:59:58;;;;;;;22.77;15.95;;;17.30;99.90;;;;;;4971593;28;20030;-95
2021/08/19 09:02:25;;;;;;;27.85;18.50;;;17.30;99.90;;;;;;4987999;28;20034;-94
2021/08/19 09:05:22;;;;;;;25.17;17.35;;;17.40;99.90;;;;;;4987945;28;20027;-95
2021/08/19 09:07:58;;;;;;;21.60;15.45;;;17.40;99.90;;;;;;4972311;28;20050;-92
2021/08/19 09:10:26;;;;;;;20.40;13.63;;;17.40;99.90;;;;;;4971595;28;20038;-92
2021/08/19 09:12:52;;;;;;;21.50;14.95;;;17.40;99.90;;;;;;4971633;28;20035;-94
2021/08/19 09:15:21;;;;;;;19.60;14.38;;;17.40;99.90;;;;;;4971430;28;20038;-91
2021/08/19 09:17:51;;;;;;;22.02;16.00;;;17.40;99.90;;;;;;4971172;28;20037;-94
2021/08/19 09:20:18;;;;;;;20.13;13.15;;;17.40;99.90;;;;;;4970878;28;20043;-94
2021/08/19 09:23:19;;;;;;;21.23;14.82;;;17.50;99.90;;;;;;4988122;28;20038;-93
2021/08/19 09:25:46;;;;;;;27.60;18.10;;;17.60;99.90;;;;;;4893842;29;20037;-94
2021/08/19 09:28:24;;;;;;;21.52;13.82;;;17.70;99.90;;;;;;4909007;29;20100;-91
2021/08/19 09:31:08;;;;;;;28.63;17.52;;;17.70;99.90;;;;;;4906930;29;20044;-93
2021/08/19 09:33:36;;;;;;;24.92;17.35;;;17.60;99.90;;;;;;4912476;29;20096;-95
2021/08/19 09:36:06;;;;;;;22.98;13.90;;;17.70;99.90;;;;;;4928443;29;20044;-93
2021/08/19 09:38:40;;;;;;;22.13;15.18;;;17.80;99.90;;;;;;4912540;29;20393;-96
2021/08/19 09:41:14;;;;;;;21.33;14.05;;;17.80;99.90;;;;;;4928448;29;20109;-93
2021/08/19 09:43:45;;;;;;;21.27;17.00;;;17.70;99.90;;;;;;4928235;29;20582;-91
2021/08/19 09:46:14;;;;;;;22.15;16.13;;;17.70;99.90;;;;;;4912507;29;20082;-92
2021/08/19 09:48:42;;;;;;;18.83;14.60;;;17.70;99.90;;;;;;4911866;29;20127;-94
2021/08/19 09:51:22;;;;;;;19.85;14.90;;;17.70;99.90;;;;;;4912108;29;20036;-95
2021/08/19 09:53:50;;;;;;;25.60;16.25;;;17.80;99.90;;;;;;4912130;29;20064;-93
2021/08/19 09:56:34;;;;;;;24.40;16.77;;;17.70;99.90;;;;;;4912173;29;20036;-94
2021/08/19 09:59:23;;;;;;;22.52;15.18;;;17.70;99.90;;;;;;4927827;28;20176;-95
2021/08/19 10:01:51;;;;;;;19.50;13.52;;;17.70;99.90;;;;;;4989258;28;20041;-91
2021/08/19 10:04:17;;;;;;;20.33;12.23;;;17.70;99.90;;;;;;4989584;28;20038;-93
2021/08/19 10:06:44;;;;;;;21.05;14.38;;;17.70;99.90;;;;;;4989732;28;20031;-93
2021/08/19 10:09:11;;;;;;;18.05;13.90;;;17.60;99.90;;;;;;4989347;28;20130;-95
2021/08/19 10:11:40;;;;;;;20.65;14.20;;;17.60;99.90;;;;;;4989655;28;20107;-94
2021/08/19 10:14:06;;;;;;;21.15;14.73;;;17.60;99.90;;;;;;4989478;28;20026;-93
2021/08/19 10:16:34;;;;;;;17.05;12.35;;;17.60;99.90;;;;;;4988879;28;20046;-93
2021/08/19 10:19:05;;;;;;;22.77;14.82;;;17.60;99.90;;;;;;4989581;28;20447;-94
2021/08/19 10:21:31;;;;;;;19.85;13.93;;;17.50;99.90;;;;;;4989813;28;20034;-93
2021/08/19 10:23:59;;;;;;;18.83;13.52;;;17.50;99.90;;;;;;5006408;28;20026;-93
2021/08/19 10:26:25;;;;;;;20.17;14.52;;;17.50;99.90;;;;;;4972944;28;20057;-93
2021/08/19 10:28:54;;;;;;;24.02;14.32;;;17.50;99.90;;;;;;5005422;28;20040;-95
2021/08/19 10:31:44;;;;;;;19.40;12.48;;;17.40;99.90;;;;;;4971806;28;20049;-95
2021/08/19 10:34:13;;;;;;;;;;;17.50;99.90;;;;;;4985801;28;20098;-95
2021/08/19 10:36:42;;;;;;;19.70;12.52;;;17.40;99.90;;;;;;4969777;28;19910;-91
2021/08/19 10:39:20;;;;;;;19.33;12.82;;;17.40;99.90;;;;;;4953664;28;20042;-93
2021/08/19 10:41:46;;;;;;;13.10;10.18;;;17.30;99.90;;;;;;4969519;28;20034;-93
2021/08/19 10:44:13;;;;;;;14.80;10.98;;;17.40;99.90;;;;;;4953542;28;20050;-93
2021/08/19 10:46:41;;;;;;;13.90;9.75;;;17.60;99.90;;;;;;4969497;28;20031;-94
2021/08/19 10:49:07;;;;;;;14.48;9.93;;;18.10;99.90;;;;;;4969348;28;20047;-93
2021/08/19 10:51:33;;;;;;;14.75;9.95;;;18.40;99.90;;;;;;4969470;28;20035;-91
2021/08/19 10:54:00;;;;;;;13.75;10.32;;;18.30;99.90;;;;;;4969958;28;20047;-92
2021/08/19 10:56:43;;;;;;;12.85;9.73;;;18.40;99.90;;;;;;4953363;28;20538;-92
2021/08/19 10:59:30;;;;;;;12.13;9.18;;;18.30;99.90;;;;;;4969216;28;20034;-93
2021/08/19 11:01:56;;;;;;;8.35;6.90;;;18.30;99.90;;;;;;4969386;28;20030;-95
2021/08/19 11:04:41;;;;;;;10.82;8.32;;;18.60;99.90;;;;;;4969472;28;20053;-92
2021/08/19 11:07:09;;;;;;;10.48;8.30;;;18.70;99.90;;;;;;4969148;28;20085;-95
2021/08/19 11:09:35;;;;;;;11.07;9.00;;;18.70;99.90;;;;;;4969056;28;20133;-92
2021/08/19 11:12:06;;;;;;;13.63;8.73;;;18.30;99.90;;;;;;4969199;28;20093;-92
2021/08/19 11:14:32;;;;;;;9.00;7.07;;;18.20;99.90;;;;;;4969304;28;20039;-94
2021/08/19 11:17:03;;;;;;;11.55;8.07;;;18.50;99.90;;;;;;4965732;29;20089;-95
2021/08/19 11:19:30;;;;;;;10.35;6.95;;;18.40;99.90;;;;;;4934242;29;20024;-94
2021/08/19 11:22:03;;;;;;;7.93;7.13;;;18.40;99.90;;;;;;4950023;29;20039;-96
2021/08/19 11:24:31;;;;;;;12.45;8.40;;;18.50;99.90;;;;;;4950058;29;20058;-91
2021/08/19 11:26:58;;;;;;;11.80;9.57;;;18.20;99.90;;;;;;4934134;29;20098;-92
2021/08/19 11:29:37;;;;;;;12.63;10.43;;;18.10;99.90;;;;;;4953857;28;20043;-91
2021/08/19 11:32:14;;;;;;;14.43;10.13;;;18.00;99.90;;;;;;4972125;28;20035;-93
2021/08/19 11:34:47;;;;;;;17.25;10.48;;;18.00;99.90;;;;;;4988544;28;20418;-88
2021/08/19 11:37:34;;;;;;;13.05;9.95;;;17.90;99.90;;;;;;5004637;28;20080;-91
2021/08/19 11:40:00;;;;;;;13.05;10.75;;;18.10;99.90;;;;;;4988347;28;20030;-91
2021/08/19 11:42:31;;;;;;;13.25;9.27;;;17.80;99.90;;;;;;5004375;28;20031;-91
2021/08/19 11:45:20;;;;;;;12.88;9.07;;;17.80;99.90;;;;;;4988612;28;20030;-93
2021/08/19 11:47:46;;;;;;;12.52;10.65;;;17.80;99.90;;;;;;4991766;28;20375;-94
2021/08/19 11:50:12;;;;;;;13.35;9.38;;;17.70;99.90;;;;;;4975842;28;20058;-93
2021/08/19 11:52:38;;;;;;;13.52;10.00;;;17.60;99.90;;;;;;4991971;28;20036;-92
2021/08/19 11:55:05;;;;;;;14.82;10.75;;;17.60;99.90;;;;;;4991834;28;20129;-91
2021/08/19 11:57:30;;;;;;;14.90;10.30;;;17.50;99.90;;;;;;5007931;28;20041;-93
2021/08/19 12:00:00;;;;;;;13.85;9.88;;;17.50;99.90;;;;;;4991994;28;20030;-92
2021/08/19 12:02:26;;;;;;;13.23;9.07;;;17.50;99.90;;;;;;5008038;28;20039;-93
2021/08/19 12:05:08;;;;;;;12.65;10.35;;;17.60;99.90;;;;;;4991913;28;20035;-92
2021/08/19 12:07:40;;;;;;;13.75;11.90;;;17.50;99.90;;;;;;4991800;28;20033;-90
2021/08/19 12:10:07;;;;;;;15.73;11.52;;;17.50;99.90;;;;;;4991550;28;20066;-91
2021/08/19 12:12:37;;;;;;;16.00;12.93;;;17.50;99.90;;;;;;4991557;28;20041;-90
2021/08/19 12:15:05;;;;;;;14.50;11.50;;;17.40;99.90;;;;;;4975600;28;20034;-92
2021/08/19 12:17:31;;;;;;;14.20;11.32;;;17.40;99.90;;;;;;5007517;28;20038;-94
2021/08/19 12:20:19;;;;;;;10.02;9.00;;;17.60;99.90;;;;;;5008940;28;20034;-93
2021/08/19 12:22:45;;;;;;;15.68;11.98;;;17.90;99.90;;;;;;4991339;28;20030;-90
2021/08/19 12:25:16;;;;;;;12.30;9.93;;;18.10;99.90;;;;;;5007546;28;20471;-93
2021/08/19 12:27:42;;;;;;;14.77;10.95;;;18.40;99.90;;;;;;5007449;28;20026;-93
2021/08/19 12:30:08;;;;;;;17.92;13.02;;;18.20;99.90;;;;;;4983010;28;20038;-92
2021/08/19 12:32:35;;;;;;;15.15;10.80;;;18.20;99.90;;;;;;4971908;28;20034;-96
2021/08/19 12:35:13;;;;;;;15.02;10.85;;;18.30;99.90;;;;;;4971795;28;20038;-90
2021/08/19 12:37:53;;;;;;;14.05;10.60;;;18.30;99.90;;;;;;4971948;28;20038;-91